Placerville, Idaho
Current Conditions -  °F | °C
As of 2:53 PM on Tuesday 25 Nov 2014 (Local Time) from KBOI Reporting Station
Overcast Overcast  
Wind Chill: 53°   Ceiling: 6500
Heat Index: 53°   Visibility: 10mi
Dew Point: 43°   Wind: 7mph
Humidity: 69%   Direction: 340°NNW
Pressure: 30.24"   Gusts: NA
Location:  43.94°N, 115.95°W
Report Text: KBOI 252153Z 34006KT 10SM OVC065 12/06 A3024 RMK AO2 SLP244 T01170061
Loading
Personal Weather Stations






























Interactive Weather Map New forecast layout! Learn more

10-Day Weather Forecast

Advertisements
Track Severe Weather on mobile